createdAt,value
2017-11-06T00:02:42.755Z,19.80
2017-11-06T00:06:09.068Z,19.80
2017-11-06T00:09:40.231Z,19.80
2017-11-06T00:13:06.827Z,19.80
2017-11-06T00:16:33.620Z,19.70
2017-11-06T00:20:00.375Z,19.70
2017-11-06T00:23:27.332Z,19.70
2017-11-06T00:26:53.584Z,19.70
2017-11-06T00:30:20.269Z,19.60
2017-11-06T00:33:47.412Z,19.70
2017-11-06T00:37:14.127Z,19.60
2017-11-06T00:40:40.990Z,19.60
2017-11-06T00:44:08.535Z,19.60
2017-11-06T00:47:34.994Z,19.60
2017-11-06T00:51:02.503Z,19.50
2017-11-06T00:54:28.911Z,19.50
2017-11-06T00:57:56.211Z,19.50
2017-11-06T01:01:22.728Z,19.40
2017-11-06T01:04:49.382Z,19.50
2017-11-06T01:08:15.863Z,19.40
2017-11-06T01:11:42.363Z,19.40
2017-11-06T01:15:08.694Z,19.40
2017-11-06T01:18:35.999Z,19.40
2017-11-06T01:22:03.517Z,19.40
2017-11-06T01:25:32.110Z,19.40
2017-11-06T01:28:58.892Z,19.30
2017-11-06T01:32:25.523Z,19.30
2017-11-06T01:35:51.758Z,19.30
2017-11-06T01:39:19.781Z,19.30
2017-11-06T01:42:46.902Z,19.30
2017-11-06T01:46:16.082Z,19.30
2017-11-06T01:49:43.834Z,19.30
2017-11-06T01:53:10.143Z,19.30
2017-11-06T01:56:38.774Z,19.30
2017-11-06T02:00:08.596Z,19.30
2017-11-06T02:03:35.003Z,19.30
2017-11-06T02:07:02.923Z,19.20
2017-11-06T02:10:30.250Z,19.20
2017-11-06T02:13:58.006Z,19.20
2017-11-06T02:17:25.079Z,19.20
2017-11-06T02:20:52.490Z,19.20
2017-11-06T02:24:19.269Z,19.20
2017-11-06T02:27:46.388Z,19.20
2017-11-06T02:31:14.397Z,19.20
2017-11-06T02:34:40.914Z,19.10
2017-11-06T02:38:07.457Z,19.20
2017-11-06T02:41:34.422Z,19.10
2017-11-06T02:45:00.723Z,19.10
2017-11-06T02:48:27.867Z,19.10
2017-11-06T02:51:54.178Z,19.10
2017-11-06T02:55:20.682Z,19.10
2017-11-06T02:58:48.099Z,19.10
2017-11-06T03:02:14.848Z,19.10
2017-11-06T03:05:41.821Z,19.10
2017-11-06T03:09:10.744Z,19.10
2017-11-06T03:12:37.138Z,19.10
2017-11-06T03:16:03.597Z,19.10
2017-11-06T03:19:30.423Z,19.10
2017-11-06T03:22:57.448Z,19.10
2017-11-06T03:26:24.534Z,19.10
2017-11-06T03:29:52.179Z,19.10
2017-11-06T03:33:20.682Z,19.00
2017-11-06T03:36:46.894Z,19.00
2017-11-06T03:40:13.680Z,19.10
2017-11-06T03:43:41.575Z,19.00
2017-11-06T03:47:08.111Z,19.00
2017-11-06T03:50:34.844Z,19.00
2017-11-06T03:54:01.889Z,19.00
2017-11-06T03:57:28.459Z,19.00
2017-11-06T04:00:55.462Z,19.00
2017-11-06T04:04:22.430Z,19.00
2017-11-06T04:07:49.535Z,19.00
2017-11-06T04:11:16.759Z,19.00
2017-11-06T04:14:43.734Z,19.00
2017-11-06T04:18:10.182Z,18.90
2017-11-06T04:21:36.970Z,19.00
2017-11-06T04:25:04.136Z,18.90
2017-11-06T04:28:30.617Z,18.90
2017-11-06T04:32:00.807Z,18.90
2017-11-06T04:35:27.095Z,18.90
2017-11-06T04:38:53.816Z,18.90
2017-11-06T04:42:20.951Z,18.80
2017-11-06T04:45:47.288Z,18.80
2017-11-06T04:49:14.242Z,18.90
2017-11-06T04:52:41.066Z,18.90
2017-11-06T04:56:07.227Z,18.90
2017-11-06T04:59:34.438Z,18.80
2017-11-06T05:03:01.311Z,19.00
2017-11-06T05:06:29.301Z,19.70
2017-11-06T05:09:56.160Z,19.70
2017-11-06T05:13:22.778Z,20.20
2017-11-06T05:16:49.709Z,20.70
2017-11-06T05:20:17.542Z,21.20
2017-11-06T05:23:44.730Z,21.70
2017-11-06T05:27:16.900Z,22.20
2017-11-06T05:30:43.874Z,22.70
2017-11-06T05:34:19.615Z,23.00
2017-11-06T05:37:51.359Z,23.00
2017-11-06T05:41:18.748Z,23.30
2017-11-06T05:44:46.337Z,23.70
2017-11-06T05:48:12.798Z,23.80
2017-11-06T05:51:39.384Z,23.80
2017-11-06T05:55:06.951Z,24.00
2017-11-06T05:58:33.567Z,24.00
2017-11-06T06:02:00.679Z,23.90
2017-11-06T06:05:27.727Z,24.10
2017-11-06T06:08:54.895Z,24.30
2017-11-06T06:12:22.999Z,24.20
2017-11-06T06:15:51.962Z,24.20
2017-11-06T06:19:18.325Z,24.30
2017-11-06T06:22:44.335Z,24.30
2017-11-06T06:26:11.677Z,24.10
2017-11-06T06:29:38.692Z,24.30
2017-11-06T06:33:05.352Z,24.30
2017-11-06T06:36:33.740Z,24.20
2017-11-06T06:40:01.566Z,24.10
2017-11-06T06:43:28.017Z,24.00
2017-11-06T06:46:57.363Z,23.90
2017-11-06T06:50:25.263Z,23.70
2017-11-06T06:53:51.516Z,23.50
2017-11-06T06:57:23.716Z,23.50
2017-11-06T07:00:51.315Z,23.50
2017-11-06T07:04:18.254Z,23.70
2017-11-06T07:07:45.770Z,23.90
2017-11-06T07:11:11.743Z,23.90
2017-11-06T07:14:38.522Z,24.00
2017-11-06T07:18:06.228Z,24.00
2017-11-06T07:21:32.674Z,24.00
2017-11-06T07:25:03.299Z,24.00
2017-11-06T07:28:32.735Z,24.20
2017-11-06T07:32:04.952Z,24.10
2017-11-06T07:35:30.943Z,24.20
2017-11-06T07:38:58.908Z,24.40
2017-11-06T07:42:26.884Z,24.30
2017-11-06T07:45:54.451Z,24.40
2017-11-06T07:49:21.250Z,24.50
2017-11-06T07:56:22.329Z,24.50
2017-11-06T08:03:23.084Z,24.40
2017-11-06T08:06:49.643Z,24.60
2017-11-06T08:10:23.562Z,24.50
2017-11-06T08:13:50.775Z,24.50
2017-11-06T08:17:21.592Z,24.60
2017-11-06T08:20:47.886Z,24.60
2017-11-06T08:24:13.932Z,24.50
2017-11-06T08:27:41.717Z,24.60
2017-11-06T08:31:08.574Z,24.50
2017-11-06T08:34:36.160Z,24.60
2017-11-06T08:38:04.157Z,24.60
2017-11-06T08:41:30.724Z,24.50
2017-11-06T08:44:58.402Z,24.50
2017-11-06T08:48:25.699Z,24.60
2017-11-06T08:51:53.394Z,24.50
2017-11-06T08:55:22.679Z,24.60
2017-11-06T08:58:49.450Z,24.70
2017-11-06T09:02:15.845Z,24.60
2017-11-06T09:05:43.978Z,24.80
2017-11-06T09:09:10.929Z,24.70
2017-11-06T09:12:37.650Z,24.60
2017-11-06T09:16:04.414Z,24.70
2017-11-06T09:19:36.196Z,24.70
2017-11-06T09:23:05.520Z,24.60
2017-11-06T09:26:41.050Z,24.80
2017-11-06T09:30:08.019Z,24.70
2017-11-06T09:33:39.146Z,24.80
2017-11-06T09:37:09.610Z,24.80
2017-11-06T09:40:42.186Z,24.70
2017-11-06T09:44:09.412Z,24.70
2017-11-06T09:47:36.999Z,24.90
2017-11-06T09:54:40.070Z,24.70
2017-11-06T09:58:12.993Z,24.80
2017-11-06T10:01:41.181Z,24.80
2017-11-06T10:05:18.918Z,24.90
2017-11-06T10:08:45.853Z,24.80
2017-11-06T10:12:14.526Z,24.80
2017-11-06T10:19:15.375Z,24.80
2017-11-06T10:22:42.020Z,24.80
2017-11-06T10:26:10.596Z,24.90
2017-11-06T10:29:38.075Z,24.90
2017-11-06T10:33:08.264Z,24.90
2017-11-06T10:36:35.730Z,24.90
2017-11-06T10:40:02.863Z,24.90
2017-11-06T10:43:34.738Z,24.90
2017-11-06T10:47:02.006Z,24.90
2017-11-06T10:50:28.825Z,25.00
2017-11-06T10:54:03.902Z,24.70
2017-11-06T10:57:36.436Z,24.70
2017-11-06T11:01:03.362Z,24.90
2017-11-06T11:04:40.040Z,24.90
2017-11-06T11:08:12.683Z,24.80
2017-11-06T11:15:15.359Z,24.90
2017-11-06T11:18:41.856Z,24.90
2017-11-06T11:22:12.100Z,24.80
2017-11-06T11:25:38.374Z,24.90
2017-11-06T11:29:04.607Z,24.80
2017-11-06T11:32:32.184Z,24.80
2017-11-06T11:35:58.700Z,24.60
2017-11-06T11:39:25.084Z,24.80
2017-11-06T11:43:13.917Z,24.70
2017-11-06T11:50:17.000Z,24.50
2017-11-06T11:53:44.902Z,24.60
2017-11-06T11:57:16.407Z,24.60
2017-11-06T12:00:47.943Z,24.50
2017-11-06T12:11:41.342Z,24.50
2017-11-06T12:15:07.631Z,24.40
2017-11-06T12:18:34.443Z,24.60
2017-11-06T12:22:06.112Z,24.50
2017-11-06T12:25:39.403Z,24.50
2017-11-06T12:29:05.459Z,24.40
2017-11-06T12:32:36.458Z,24.50
2017-11-06T12:36:08.900Z,24.50
2017-11-06T12:39:35.835Z,24.50
2017-11-06T12:43:07.028Z,24.60
2017-11-06T12:46:37.476Z,24.60
2017-11-06T12:50:03.482Z,24.50
2017-11-06T12:53:31.888Z,24.40
2017-11-06T12:56:58.877Z,24.40
2017-11-06T13:00:24.851Z,24.60
2017-11-06T13:03:51.369Z,24.50
2017-11-06T13:10:52.088Z,24.50
2017-11-06T13:14:18.488Z,24.60
2017-11-06T13:17:45.538Z,24.40
2017-11-06T13:21:12.319Z,24.30
2017-11-06T13:24:38.755Z,24.30
2017-11-06T13:28:06.203Z,24.30
2017-11-06T13:31:33.569Z,24.10
2017-11-06T13:35:01.098Z,24.20
2017-11-06T13:42:43.055Z,24.10
2017-11-06T13:46:09.760Z,24.00
2017-11-06T13:49:46.657Z,24.30
2017-11-06T13:53:14.930Z,24.20
2017-11-06T13:56:41.366Z,24.20
2017-11-06T14:00:07.719Z,24.10
2017-11-06T14:03:34.096Z,24.30
2017-11-06T14:07:01.939Z,24.30
2017-11-06T14:10:34.075Z,24.30
2017-11-06T14:14:01.396Z,24.30
2017-11-06T14:17:37.259Z,24.30
2017-11-06T14:21:04.760Z,24.30
2017-11-06T14:24:31.725Z,24.30
2017-11-06T14:27:58.696Z,24.20
2017-11-06T14:31:38.578Z,24.20
2017-11-06T14:35:07.133Z,24.10
2017-11-06T14:38:34.628Z,23.90
2017-11-06T14:42:03.064Z,24.00
2017-11-06T14:45:32.056Z,23.80
2017-11-06T14:48:58.018Z,23.80
2017-11-06T14:52:25.160Z,23.80
2017-11-06T14:55:51.518Z,23.80
2017-11-06T14:59:20.152Z,23.90
2017-11-06T15:02:46.783Z,23.80
2017-11-06T15:06:14.340Z,23.80
2017-11-06T15:09:49.399Z,23.90
2017-11-06T15:13:25.007Z,23.90
2017-11-06T15:17:00.528Z,23.90
2017-11-06T15:20:32.203Z,23.90
2017-11-06T15:23:58.375Z,24.00
2017-11-06T15:27:24.456Z,24.00
2017-11-06T15:30:51.437Z,23.90
2017-11-06T15:34:24.467Z,23.90
2017-11-06T15:37:50.593Z,23.80
2017-11-06T15:41:17.127Z,23.70
2017-11-06T15:44:47.579Z,23.60
2017-11-06T15:51:48.616Z,23.70
2017-11-06T15:58:56.444Z,23.50
2017-11-06T16:02:29.764Z,23.50
2017-11-06T16:05:56.977Z,23.70
2017-11-06T16:09:28.724Z,23.60
2017-11-06T16:12:57.521Z,23.50
2017-11-06T16:16:32.882Z,23.80
2017-11-06T16:20:04.027Z,23.70
2017-11-06T16:27:08.633Z,23.80
2017-11-06T16:30:38.509Z,23.80
2017-11-06T16:34:13.430Z,23.80
2017-11-06T16:37:41.258Z,23.70
2017-11-06T16:41:07.595Z,23.90
2017-11-06T16:48:23.030Z,23.90
2017-11-06T16:51:54.320Z,23.90
2017-11-06T16:55:21.973Z,24.00
2017-11-06T16:58:53.262Z,24.00
2017-11-06T17:02:20.271Z,23.90
2017-11-06T17:05:54.032Z,23.90
2017-11-06T17:09:20.454Z,24.10
2017-11-06T17:12:52.345Z,24.10
2017-11-06T17:16:27.738Z,24.00
2017-11-06T17:19:54.451Z,24.00
2017-11-06T17:23:26.140Z,24.20
2017-11-06T17:26:53.044Z,24.20
2017-11-06T17:30:19.810Z,24.00
2017-11-06T17:33:51.229Z,24.00
2017-11-06T17:37:24.144Z,24.00
2017-11-06T17:40:51.020Z,24.00
2017-11-06T17:44:17.291Z,24.00
2017-11-06T17:47:43.669Z,24.00
2017-11-06T17:51:10.316Z,24.00
2017-11-06T17:54:42.650Z,23.80
2017-11-06T17:58:10.507Z,23.80
2017-11-06T18:05:10.884Z,23.80
2017-11-06T18:08:37.809Z,23.70
2017-11-06T18:12:04.753Z,23.80
2017-11-06T18:15:30.959Z,23.80
2017-11-06T18:22:30.797Z,23.70
2017-11-06T18:25:57.897Z,23.80
2017-11-06T18:29:27.684Z,23.70
2017-11-06T18:32:55.094Z,23.60
2017-11-06T18:36:21.932Z,23.60
2017-11-06T18:39:49.749Z,23.60
2017-11-06T18:43:17.105Z,23.40
2017-11-06T18:46:45.166Z,23.20
2017-11-06T18:50:12.884Z,23.10
2017-11-06T18:53:39.845Z,22.80
2017-11-06T18:57:07.397Z,22.50
2017-11-06T19:00:34.480Z,22.40
2017-11-06T19:04:01.134Z,22.20
2017-11-06T19:07:29.694Z,22.10
2017-11-06T19:11:00.344Z,21.90
2017-11-06T19:14:29.458Z,22.00
2017-11-06T19:17:57.273Z,22.20
2017-11-06T19:24:56.402Z,22.30
2017-11-06T19:28:24.096Z,22.50
2017-11-06T19:35:24.501Z,22.60
2017-11-06T19:38:50.889Z,22.40
2017-11-06T19:42:19.076Z,22.70
2017-11-06T19:45:46.985Z,22.90
2017-11-06T19:49:14.409Z,22.90
2017-11-06T19:52:42.675Z,22.90
2017-11-06T19:56:10.604Z,23.20
2017-11-06T19:59:38.208Z,23.20
2017-11-06T20:03:05.128Z,23.20
2017-11-06T20:06:32.054Z,23.20
2017-11-06T20:09:59.381Z,23.00
2017-11-06T20:13:28.907Z,22.80
2017-11-06T20:16:55.353Z,22.80
2017-11-06T20:20:22.983Z,22.60
2017-11-06T20:23:50.461Z,22.60
2017-11-06T20:27:24.127Z,22.50
2017-11-06T20:30:52.277Z,22.40
2017-11-06T20:34:19.533Z,22.60
2017-11-06T20:37:46.383Z,22.70
2017-11-06T20:41:13.477Z,22.60
2017-11-06T20:44:44.459Z,22.60
2017-11-06T20:48:12.658Z,22.80
2017-11-06T20:51:49.372Z,22.90
2017-11-06T20:55:18.352Z,22.80
2017-11-06T20:58:46.869Z,23.00
2017-11-06T21:02:13.992Z,23.00
2017-11-06T21:05:41.202Z,23.10
2017-11-06T21:09:09.048Z,23.10
2017-11-06T21:12:38.198Z,22.90
2017-11-06T21:16:06.625Z,22.80
2017-11-06T21:19:34.262Z,22.80
2017-11-06T21:23:04.645Z,22.70
2017-11-06T21:26:31.891Z,22.50
2017-11-06T21:30:04.653Z,22.20
2017-11-06T21:33:33.616Z,22.20
2017-11-06T21:37:09.026Z,22.10
2017-11-06T21:40:37.185Z,21.90
2017-11-06T21:44:04.746Z,21.80
2017-11-06T21:47:34.775Z,21.60
2017-11-06T21:51:02.551Z,21.40
2017-11-06T21:54:29.917Z,21.20
2017-11-06T21:58:00.038Z,21.10
2017-11-06T22:01:26.700Z,21.00
2017-11-06T22:04:53.870Z,20.80
2017-11-06T22:08:22.195Z,20.70
2017-11-06T22:11:51.613Z,20.60
2017-11-06T22:15:19.668Z,20.50
2017-11-06T22:22:40.212Z,20.20
2017-11-06T22:26:07.727Z,20.20
2017-11-06T22:29:42.605Z,20.10
2017-11-06T22:33:10.733Z,20.10
2017-11-06T22:36:37.577Z,20.00
2017-11-06T22:40:04.756Z,19.90
2017-11-06T22:43:31.653Z,19.80
2017-11-06T22:46:59.383Z,19.80
2017-11-06T22:50:26.187Z,19.60
2017-11-06T22:53:53.579Z,19.60
2017-11-06T22:57:20.766Z,19.50
2017-11-06T23:00:49.112Z,19.50
2017-11-06T23:04:15.538Z,19.40
2017-11-06T23:07:42.651Z,19.40
2017-11-06T23:11:13.326Z,19.30
2017-11-06T23:14:40.984Z,19.30
2017-11-06T23:18:08.888Z,19.20
2017-11-06T23:21:35.383Z,19.20
2017-11-06T23:25:02.332Z,19.10
2017-11-06T23:28:29.413Z,19.10
2017-11-06T23:31:58.908Z,19.00
2017-11-06T23:35:27.684Z,19.00
2017-11-06T23:38:57.799Z,18.90
2017-11-06T23:42:26.287Z,18.90
2017-11-06T23:45:56.129Z,18.80
2017-11-06T23:49:27.696Z,18.80
2017-11-06T23:52:55.702Z,18.70
2017-11-06T23:56:27.598Z,18.80
2017-11-06T23:59:59.635Z,18.60
